Latest Coastal Weather Observations for Ceduna

IDS60701

Issued at 8:25 pm CST Wednesday 27 August 2014 (issued every 10 minutes, with the page automatically refreshed every 10 minutes)

About coastal observations | Map of coastal stations | Coastal observations for SA | Marine services | Other Formats
Station Details ID: 018012 Name: CEDUNA AMO Lat: -32.13 Lon: 133.70 Height: 15.3 m
Data from the previous 72 hours. | See also: Recent months at Ceduna
Date/Time
CST
Temp

°C
Wind Pressure Rain
since 9am
mm
Weather Cloud Vis
km
Sea
Height
m
Swell
Dir
 
Speed
knots
Gust
knots
hPa Trend Height
m
Period
s
Dir
27/08:00pm 14.6 SE 10 12 1024.5 - 0.0 - - 10 - - - -
27/07:30pm 15.0 SE 10 11 1024.1 - 0.0 - - 10 - - - -
27/07:00pm 15.4 SE 10 12 1023.6 - 0.0 - - 10 - - - -
27/06:30pm 15.3 SSE 9 11 1023.2 - 0.0 - - 10 - - - -
27/06:00pm 16.8 SSE 11 13 1023.1 S 0.0 - - 10 - - - -
27/05:30pm 18.7 SSE 12 16 1022.9 - 0.0 - - 10 - - - -
27/05:00pm 19.7 SSE 13 16 1022.8 - 0.0 - - 10 - - - -
27/04:30pm 20.5 S 14 19 1022.7 - 0.0 - - 10 - - - -
27/04:00pm 20.6 S 13 17 1022.8 - 0.0 - - 10 - - - -
27/03:30pm 21.0 S 13 16 1022.7 - 0.0 - - 10 - - - -
27/03:00pm 21.3 S 13 16 1022.7 R 0.0 Fine Clear 35 - - - -
27/02:30pm 23.1 S 12 15 1022.8 - 0.0 - - 10 - - - -
27/02:00pm 23.8 SSW 9 11 1022.9 - 0.0 - - 10 - - - -
27/01:30pm 24.3 S 8 10 1022.9 - 0.0 - - 10 - - - -
27/01:00pm 23.7 S 9 12 1023.3 - 0.0 - - 10 - - - -
27/12:30pm 22.1 SSW 9 12 1023.9 - 0.0 - - 10 - - - -
27/12:00pm 21.7 SSW 9 11 1024.1 S 0.0 Fine Mostly clear 35 - - - -
27/11:30am 20.4 SSW 7 10 1024.6 - 0.0 - - 10 - - - -
27/11:00am 19.2 SSW 7 8 1024.8 - 0.0 - - 10 - - - -
27/10:30am 21.9 NE 5 7 1024.7 - 0.0 - - 10 - - - -
27/10:00am 21.1 NNE 6 9 1024.6 - 0.0 - - 10 - - - -
27/09:30am 18.5 NNE 7 9 1024.7 - 0.0 - - 10 - - - -
27/09:00am 15.6 NNE 8 10 1024.6 F 0.0 Fine Mostly clear 35 - - - -
27/08:30am 11.2 NNE 7 9 1024.4 - 0.0 - - 10 - - - -
27/08:00am 6.4 NNE 8 9 1024.1 - 0.0 - - 10 - - - -
27/07:30am 4.8 NE 6 7 1024.2 - 0.0 - - 10 - - - -
27/07:00am 4.8 ENE 7 7 1023.7 - 0.0 - - 10 - - - -
27/06:30am 5.1 ENE 7 8 1023.5 - 0.0 - - 10 - - - -
27/06:00am 4.2 E 8 9 1023.4 R 0.0 Fine Clear 30 - - - -
27/05:30am 3.6 ENE 5 6 1023.3 - 0.0 - - 10 - - - -
27/05:00am 4.4 S 3 5 1023.2 - 0.0 - - 10 - - - -
27/04:30am 3.5 SE 2 3 1022.9 - 0.0 - - 10 - - - -
27/04:00am 3.6 SE 4 5 1022.7 - 0.0 - - 10 - - - -
27/03:30am 5.0 ESE 3 7 1022.7 - 0.0 - - 10 - - - -
27/03:00am 4.8 ENE 5 7 1022.8 R 0.0 - - 10 - - - -
27/02:30am 5.2 NE 5 7 1023.0 - 0.0 - - 10 - - - -
27/02:00am 5.8 E 6 8 1023.0 - 0.0 - - 10 - - - -
27/01:30am 6.4 E 6 7 1023.1 - 0.0 - - 10 - - - -
27/01:00am 4.2 ESE 3 5 1023.4 - 0.0 - - 10 - - - -
27/12:30am 5.0 SE 3 5 1023.3 - 0.0 - - 10 - - - -
27/12:00am 6.8 NE 4 5 1023.0 F 0.0 - - 10 - - - -
 
Date/Time
CST
Temp

°C
Wind Pressure Rain
since 9am
mm
Weather Cloud Vis
km
Sea
Height
m
Swell
Dir
 
Speed
knots
Gust
knots
hPa Trend Height
m
Period
s
Dir
26/11:30pm 6.2 ENE 3 4 1023.2 - 0.0 - - 10 - - - -
26/11:00pm 6.3 E 4 4 1023.3 - 0.0 - - 10 - - - -
26/10:30pm 6.7 ENE 3 4 1023.5 - 0.0 - - 10 - - - -
26/10:00pm 6.5 E 5 6 1023.3 - 0.0 - - 10 - - - -
26/09:30pm 7.4 ENE 7 8 1023.3 - 0.0 - - 10 - - - -
26/09:00pm 8.3 ENE 5 6 1023.3 F 0.0 - - 10 - - - -
26/08:30pm 9.0 E 6 7 1023.0 - 0.0 - - 10 - - - -
26/08:00pm 10.5 ESE 2 5 1023.2 - 0.0 - - 10 - - - -
26/07:30pm 11.5 SE 4 6 1023.0 - 0.0 - - 10 - - - -
26/07:00pm 13.0 S 8 9 1022.7 - 0.0 - - 10 - - - -
26/06:30pm 13.2 S 6 7 1022.5 - 0.0 - - 10 - - - -
26/06:00pm 15.1 S 7 9 1022.4 R 0.0 - - 10 - - - -
26/05:30pm 16.5 S 10 12 1022.1 - 0.0 - - 10 - - - -
26/05:00pm 18.3 S 11 15 1022.0 - 0.0 - - 10 - - - -
26/04:30pm 20.8 S 10 12 1021.8 - 0.0 - - 10 - - - -
26/04:00pm 21.2 SSW 10 12 1021.8 - 0.0 - - 10 - - - -
26/03:30pm 24.0 SSW 6 8 1021.7 - 0.0 - - 10 - - - -
26/03:00pm 23.6 SSW 8 10 1021.8 F 0.0 Fine Mostly clear 35 - - - -
26/02:30pm 23.3 SW 9 10 1022.1 - 0.0 - - 10 - - - -
26/02:00pm 23.4 SSW 8 10 1022.4 - 0.0 - - 10 - - - -
26/01:30pm 22.3 SSW 8 9 1022.6 - 0.0 - - 10 - - - -
26/01:00pm 22.2 SW 7 9 1023.1 - 0.0 - - 10 - - - -
26/12:30pm 21.6 SW 7 8 1023.6 - 0.0 - - 10 - - - -
26/12:00pm 21.4 SSW 5 7 1024.1 F 0.0 Fine Clear 35 - - - -
26/11:30am 19.9 SW 5 6 1024.4 - 0.0 - - 10 - - - -
26/11:00am 18.8 SW 6 8 1024.8 - 0.0 - - 10 - - - -
26/10:30am 20.3 N 5 7 1025.0 - 0.0 - - 10 - - - -
26/10:00am 18.9 N 6 8 1025.2 - 0.0 - - 10 - - - -
26/09:30am 16.9 NNE 5 7 1025.3 - 0.0 - - 10 - - - -
26/09:00am 14.5 NE 8 10 1025.5 F 0.0 Fine Clear 35 - - - -
26/08:30am 11.8 NE 7 9 1025.7 - 0.0 - - 10 - - - -
26/08:00am 7.9 NE 5 7 1025.7 - 0.0 - - 10 - - - -
26/07:30am 5.2 NE 7 8 1025.3 - 0.0 - - 10 - - - -
26/07:00am 4.7 NE 7 9 1024.7 - 0.0 - - 10 - - - -
26/06:30am 5.0 ENE 8 9 1024.5 - 0.0 - - 10 - - - -
26/06:00am 4.0 ENE 8 10 1024.3 F 0.0 Fine Clear 35 - - - -
26/05:30am 1.9 ENE 6 9 1024.4 - 0.0 - - 10 - - - -
26/05:00am 1.8 ENE 4 5 1024.4 - 0.0 - - 10 - - - -
26/04:30am 0.8 ENE 4 5 1024.3 - 0.0 - - 10 - - - -
26/04:00am 0.8 NE 4 5 1024.3 - 0.0 - - 10 - - - -
26/03:30am 0.9 NNE 3 5 1024.3 - 0.0 - - 10 - - - -
26/03:00am 1.6 N 4 4 1024.5 F 0.0 - - 10 - - - -
26/02:30am 2.4 N 3 5 1024.7 - 0.0 - - 10 - - - -
26/02:00am 1.9 CALM 0 0 1025.1 - 0.0 - - 10 - - - -
26/01:30am 2.5 CALM 0 0 1025.3 - 0.0 - - 10 - - - -
26/01:00am 2.7 N 3 4 1025.4 - 0.0 - - 10 - - - -
26/12:30am 3.5 CALM 0 0 1025.5 - 0.0 - - 10 - - - -
26/12:00am 4.3 CALM 0 0 1025.8 F 0.0 - - 10 - - - -
 
Date/Time
CST
Temp

°C
Wind Pressure Rain
since 9am
mm
Weather Cloud Vis
km
Sea
Height
m
Swell
Dir
 
Speed
knots
Gust
knots
hPa Trend Height
m
Period
s
Dir
25/11:30pm 4.9 N 1 3 1026.1 - 0.0 - - 10 - - - -
25/11:00pm 5.2 N 2 4 1026.3 - 0.0 - - 10 - - - -
25/10:30pm 5.8 CALM 0 0 1026.5 - 0.0 - - 10 - - - -
25/10:00pm 7.0 CALM 0 0 1026.6 - 0.0 - - 10 - - - -
25/09:30pm 7.5 SE 1 3 1026.7 - 0.0 - - 10 - - - -
25/09:00pm 8.2 SE 5 6 1026.5 F 0.0 - - 10 - - - -
25/08:30pm 10.0 SE 8 9 1026.5 - 0.0 - - 10 - - - -
25/08:00pm 10.9 SSE 4 4 1026.5 - 0.0 - - 10 - - - -
25/07:30pm 12.1 SSE 4 5 1026.3 - 0.0 - - 10 - - - -
25/07:00pm 11.9 SSE 6 7 1026.0 - 0.0 - - 10 - - - -
25/06:30pm 13.3 SSE 7 7 1026.0 - 0.0 - - 10 - - - -
25/06:00pm 15.4 S 7 9 1025.8 F 0.0 - - 10 - - - -
25/05:30pm 17.0 S 8 11 1025.8 - 0.0 - - 10 - - - -
25/05:00pm 18.1 S 9 11 1025.6 - 0.0 - - 10 - - - -
25/04:30pm 18.9 S 11 13 1025.5 - 0.0 - - 10 - - - -
25/04:00pm 19.6 SSW 10 13 1025.5 - 0.0 - - 10 - - - -
25/03:30pm 20.1 SSW 11 14 1025.5 - 0.0 - - 10 - - - -
25/03:00pm 20.4 SSW 11 15 1025.8 F 0.0 Fine Clear 35 - - - -
25/02:30pm 20.9 SW 13 17 1025.8 - 0.0 - - 10 - - - -
25/02:00pm 24.2 W 7 11 1025.9 - 0.0 - - 10 - - - -
25/01:30pm 23.3 N 6 11 1026.3 - 0.0 - - 10 - - - -
25/01:00pm 23.4 NW 7 12 1026.7 - 0.0 - - 10 - - - -
25/12:30pm 22.6 N 7 14 1027.3 - 0.0 - - 10 - - - -
25/12:00pm 22.6 NNW 9 12 1027.8 F 0.0 Fine Clear 35 - - - -
25/11:30am 22.2 N 9 13 1028.2 - 0.0 - - 10 - - - -
25/11:00am 21.0 N 9 15 1028.6 - 0.0 - - 10 - - - -
25/10:30am 20.3 N 10 13 1028.8 - 0.0 - - 10 - - - -
25/10:00am 17.5 N 7 9 1029.0 - 0.0 - - 10 - - - -
25/09:30am 14.1 NNE 5 7 1029.2 - 0.0 - - 10 - - - -
25/09:00am 11.4 ENE 5 6 1029.2 F 0.0 Fine Clear 30 - - - -
25/08:30am 8.7 ENE 5 6 1029.2 - 0.0 - - 10 - - - -
25/08:00am 5.8 ENE 8 8 1028.9 - 0.0 - - 10 - - - -
25/07:30am 1.6 NE 4 5 1028.7 - 0.0 - - 10 - - - -
25/07:00am 2.8 ENE 4 6 1028.4 - 0.0 - - 10 - - - -
25/06:30am 1.0 ENE 5 6 1028.3 - 0.0 - - 10 - - - -
25/06:18am 0.7 NE 5 6 1028.2 - 0.0 Fog patches - 10 - - - -
25/06:00am 0.1 ENE 6 6 1028.1 R 0.0 Fog patches Clear 25 - - - -
25/05:35am -0.3 ENE 4 5 1027.8 - 0.0 - - 10 - - - -
25/05:30am -0.3 ENE 4 5 1027.8 - 0.0 - - 10 - - - -
25/05:00am 1.2 ENE 4 5 1027.7 - 0.0 - - 2 - - - -
25/04:30am 0.2 E 3 6 1027.6 - 0.0 - - 2 - - - -
25/04:14am -0.2 CALM 0 0 1027.5 - 0.0 - - 5 - - - -
25/04:00am -0.2 CALM 0 0 1027.4 - 0.0 - - 9 - - - -
25/03:30am 1.7 N 2 3 1027.6 - 0.0 - - 10 - - - -
25/03:23am 1.2 N 2 3 1027.5 - 0.0 - - 8 - - - -
25/03:00am 0.6 N 3 4 1027.7 F 0.0 - - 2 - - - -
25/02:54am 1.4 N 3 4 1027.7 - 0.0 - - 4 - - - -
25/02:46am 2.0 N 3 4 1027.7 - 0.0 - - 10 - - - -
25/02:30am 2.2 NE 1 4 1027.8 - 0.0 - - 1 - - - -
25/02:17am 2.2 CALM 0 0 1027.8 - 0.0 - - 5 - - - -
25/02:00am 2.8 ENE 1 3 1028.1 - 0.0 - - 7 - - - -
25/01:30am 3.6 ENE 4 5 1028.4 - 0.0 - - 10 - - - -
25/01:00am 2.4 E 4 5 1028.6 - 0.0 - - 10 - - - -
25/12:30am 3.0 NE 4 5 1028.9 - 0.0 - - 10 - - - -
25/12:00am 4.6 NNE 4 5 1029.0 R 0.0 - - 10 - - - -
 
Date/Time
CST
Temp

°C
Wind Pressure Rain
since 9am
mm
Weather Cloud Vis
km
Sea
Height
m
Swell
Dir
 
Speed
knots
Gust
knots
hPa Trend Height
m
Period
s
Dir
24/11:30pm 5.6 CALM 0 0 1029.3 - 0.0 - - 10 - - - -
24/11:00pm 5.7 NNE 1 4 1029.3 - 0.0 - - 10 - - - -
24/10:30pm 7.9 E 7 8 1029.3 - 0.0 - - 10 - - - -
24/10:00pm 6.2 ENE 5 6 1029.3 - 0.0 - - 10 - - - -
24/09:30pm 9.0 ESE 7 9 1029.1 - 0.0 - - 10 - - - -
24/09:00pm 10.6 SE 8 10 1029.0 R 0.0 - - 10 - - - -
24/08:30pm 10.9 SSE 9 10 1028.9 - 0.0 - - 10 - - - -

Other Formats:

Comma delimited format used in spreadsheet applications
http://www.bom.gov.au/fwo/IDS60701/IDS60701.94653.axf

JavaScript Object Notation format (JSON) in row-major order
http://www.bom.gov.au/fwo/IDS60701/IDS60701.94653.json